createdAt,value
2023-04-22T00:01:13.313Z,22.61
2023-04-22T00:03:42.846Z,22.60
2023-04-22T00:06:09.815Z,22.61
2023-04-22T00:08:36.731Z,22.59
2023-04-22T00:11:03.922Z,22.57
2023-04-22T00:13:30.852Z,22.56
2023-04-22T00:15:58.049Z,22.54
2023-04-22T00:18:24.918Z,22.52
2023-04-22T00:20:51.993Z,22.52
2023-04-22T00:23:19.472Z,22.49
2023-04-22T00:25:48.994Z,22.51
2023-04-22T00:28:15.946Z,22.45
2023-04-22T00:30:42.798Z,22.44
2023-04-22T00:33:09.935Z,22.37
2023-04-22T00:35:36.771Z,22.34
2023-04-22T00:38:03.689Z,22.29
2023-04-22T00:40:30.655Z,22.21
2023-04-22T00:42:58.504Z,22.18
2023-04-22T00:45:27.193Z,22.13
2023-04-22T00:47:54.277Z,22.11
2023-04-22T00:50:21.294Z,22.07
2023-04-22T00:52:48.589Z,22.05
2023-04-22T00:55:16.342Z,22.02
2023-04-22T00:57:43.825Z,22.00
2023-04-22T01:00:10.992Z,21.99
2023-04-22T01:02:39.287Z,21.97
2023-04-22T01:05:06.716Z,21.93
2023-04-22T01:07:33.585Z,21.89
2023-04-22T01:10:01.044Z,21.88
2023-04-22T01:12:28.063Z,21.85
2023-04-22T01:14:55.050Z,21.83
2023-04-22T01:17:22.296Z,21.80
2023-04-22T01:19:49.207Z,21.81
2023-04-22T01:22:19.561Z,21.79
2023-04-22T01:24:46.634Z,21.79
2023-04-22T01:27:13.684Z,21.77
2023-04-22T01:29:40.782Z,21.74
2023-04-22T01:32:08.101Z,21.73
2023-04-22T01:34:35.088Z,21.71
2023-04-22T01:37:02.089Z,21.72
2023-04-22T01:39:30.106Z,21.71
2023-04-22T01:41:58.819Z,21.68
2023-04-22T01:44:26.179Z,21.67
2023-04-22T01:46:53.063Z,21.63
2023-04-22T01:49:19.995Z,21.60
2023-04-22T01:51:46.864Z,21.61
2023-04-22T01:54:14.252Z,21.55
2023-04-22T01:56:42.086Z,21.57
2023-04-22T01:59:09.460Z,21.55
2023-04-22T02:01:36.422Z,21.55
2023-04-22T02:04:07.282Z,21.54
2023-04-22T02:06:34.084Z,21.52
2023-04-22T02:09:00.936Z,21.49
2023-04-22T02:11:27.837Z,21.47
2023-04-22T02:13:54.667Z,21.48
2023-04-22T02:16:21.586Z,21.48
2023-04-22T02:18:48.464Z,21.43
2023-04-22T02:21:15.630Z,21.41
2023-04-22T02:23:42.485Z,21.41
2023-04-22T02:26:09.343Z,21.40
2023-04-22T02:28:36.478Z,21.38
2023-04-22T02:31:03.502Z,21.36
2023-04-22T02:33:30.455Z,21.34
2023-04-22T02:35:57.757Z,21.32
2023-04-22T02:38:24.712Z,21.30
2023-04-22T02:40:51.546Z,21.28
2023-04-22T02:43:18.653Z,21.28
2023-04-22T02:45:45.565Z,21.25
2023-04-22T02:48:12.472Z,21.25
2023-04-22T02:50:39.362Z,21.21
2023-04-22T02:53:06.673Z,21.20
2023-04-22T02:55:33.524Z,21.18
2023-04-22T02:58:00.508Z,21.16
2023-04-22T03:00:27.521Z,21.17
2023-04-22T03:02:54.509Z,21.15
2023-04-22T03:05:21.512Z,21.15
2023-04-22T03:07:49.613Z,21.12
2023-04-22T03:10:16.648Z,21.10
2023-04-22T03:12:43.493Z,21.11
2023-04-22T03:15:11.054Z,21.09
2023-04-22T03:17:38.013Z,21.05
2023-04-22T03:20:05.559Z,21.05
2023-04-22T03:22:32.642Z,21.05
2023-04-22T03:24:59.459Z,21.03
2023-04-22T03:27:26.472Z,21.03
2023-04-22T03:29:53.352Z,21.01
2023-04-22T03:32:20.273Z,21.01
2023-04-22T03:34:47.461Z,20.98
2023-04-22T03:37:14.357Z,20.95
2023-04-22T03:39:41.802Z,20.94
2023-04-22T03:42:08.914Z,20.91
2023-04-22T03:44:36.112Z,20.90
2023-04-22T03:47:03.047Z,20.89
2023-04-22T03:49:30.657Z,20.86
2023-04-22T03:51:57.422Z,20.84
2023-04-22T03:54:24.528Z,20.83
2023-04-22T03:56:51.394Z,20.81
2023-04-22T03:59:18.870Z,20.80
2023-04-22T04:01:47.274Z,20.78
2023-04-22T04:04:14.405Z,20.77
2023-04-22T04:06:44.520Z,20.77
2023-04-22T04:09:11.459Z,20.74
2023-04-22T04:11:38.405Z,20.73
2023-04-22T04:14:05.302Z,20.72
2023-04-22T04:16:35.299Z,20.70
2023-04-22T04:19:02.262Z,20.70
2023-04-22T04:21:29.699Z,20.68
2023-04-22T04:23:56.636Z,20.68
2023-04-22T04:26:27.821Z,20.67
2023-04-22T04:28:54.794Z,20.66
2023-04-22T04:31:21.844Z,20.65
2023-04-22T04:33:48.704Z,20.64
2023-04-22T04:36:15.666Z,20.63
2023-04-22T04:38:42.556Z,20.61
2023-04-22T04:41:10.154Z,20.58
2023-04-22T04:43:37.035Z,20.58
2023-04-22T04:46:04.017Z,20.56
2023-04-22T04:48:31.034Z,20.56
2023-04-22T04:50:59.268Z,20.55
2023-04-22T04:53:26.290Z,20.52
2023-04-22T04:55:53.165Z,20.52
2023-04-22T04:58:20.110Z,20.51
2023-04-22T05:00:47.516Z,20.50
2023-04-22T05:03:14.599Z,20.48
2023-04-22T05:05:41.623Z,20.48
2023-04-22T05:08:08.643Z,20.45
2023-04-22T05:10:35.541Z,20.45
2023-04-22T05:13:04.123Z,20.45
2023-04-22T05:15:31.474Z,20.44
2023-04-22T05:17:58.440Z,20.43
2023-04-22T05:20:25.544Z,20.42
2023-04-22T05:22:52.418Z,20.39
2023-04-22T05:25:19.348Z,20.38
2023-04-22T05:27:46.137Z,20.38
2023-04-22T05:30:12.991Z,20.37
2023-04-22T05:32:39.847Z,20.35
2023-04-22T05:35:07.101Z,20.35
2023-04-22T05:37:34.082Z,20.34
2023-04-22T05:40:01.014Z,20.33
2023-04-22T05:42:27.834Z,20.31
2023-04-22T05:44:54.636Z,20.31
2023-04-22T05:47:21.709Z,20.30
2023-04-22T05:49:48.577Z,20.31
2023-04-22T05:52:15.482Z,20.32
2023-04-22T05:54:42.330Z,20.40
2023-04-22T05:57:09.289Z,20.48
2023-04-22T05:59:36.646Z,20.52
2023-04-22T06:02:03.680Z,20.58
2023-04-22T06:04:32.402Z,20.65
2023-04-22T06:07:00.607Z,20.71
2023-04-22T06:09:27.778Z,20.76
2023-04-22T06:11:57.733Z,20.81
2023-04-22T06:14:25.496Z,20.86
2023-04-22T06:16:53.647Z,20.93
2023-04-22T06:19:20.592Z,21.00
2023-04-22T06:21:47.413Z,21.07
2023-04-22T06:24:14.393Z,21.14
2023-04-22T06:26:41.487Z,21.20
2023-04-22T06:29:08.381Z,21.27
2023-04-22T06:31:35.474Z,21.34
2023-04-22T06:34:02.504Z,21.40
2023-04-22T06:36:30.638Z,21.44
2023-04-22T06:38:57.847Z,21.48
2023-04-22T06:41:26.184Z,21.52
2023-04-22T06:43:53.058Z,21.56
2023-04-22T06:46:20.051Z,21.59
2023-04-22T06:48:47.243Z,21.63
2023-04-22T06:51:16.503Z,21.65
2023-04-22T06:53:43.372Z,21.68
2023-04-22T06:56:10.744Z,21.71
2023-04-22T06:58:37.885Z,21.73
2023-04-22T07:01:04.832Z,21.76
2023-04-22T07:03:32.037Z,21.78
2023-04-22T07:05:59.136Z,21.82
2023-04-22T07:08:26.005Z,21.83
2023-04-22T07:10:53.152Z,21.84
2023-04-22T07:13:20.069Z,21.85
2023-04-22T07:15:46.948Z,21.87
2023-04-22T07:18:13.871Z,21.89
2023-04-22T07:20:41.132Z,21.89
2023-04-22T07:23:08.051Z,21.91
2023-04-22T07:25:37.910Z,21.93
2023-04-22T07:28:04.828Z,21.92
2023-04-22T07:30:31.758Z,21.92
2023-04-22T07:32:58.692Z,21.92
2023-04-22T07:35:26.015Z,21.91
2023-04-22T07:37:53.047Z,21.92
2023-04-22T07:40:20.011Z,21.91
2023-04-22T07:42:47.074Z,21.91
2023-04-22T07:45:13.950Z,21.90
2023-04-22T07:47:41.150Z,21.90
2023-04-22T07:50:08.487Z,21.89
2023-04-22T07:52:35.454Z,21.88
2023-04-22T07:55:02.653Z,21.87
2023-04-22T07:57:29.535Z,21.87
2023-04-22T07:59:56.444Z,21.85
2023-04-22T08:02:23.598Z,21.84
2023-04-22T08:04:50.757Z,21.19
2023-04-22T08:07:32.541Z,21.08
2023-04-22T08:09:59.920Z,20.88
2023-04-22T08:12:26.978Z,20.82
2023-04-22T08:14:54.482Z,20.96
2023-04-22T08:17:22.665Z,21.03
2023-04-22T08:19:49.959Z,21.05
2023-04-22T08:22:18.209Z,21.09
2023-04-22T08:24:45.392Z,21.15
2023-04-22T08:27:12.732Z,21.19
2023-04-22T08:29:40.010Z,21.20
2023-04-22T08:32:07.171Z,21.23
2023-04-22T08:34:34.156Z,21.27
2023-04-22T08:37:01.155Z,21.29
2023-04-22T08:39:28.549Z,21.33
2023-04-22T08:41:56.614Z,21.38
2023-04-22T08:44:23.667Z,21.45
2023-04-22T08:46:52.107Z,21.48
2023-04-22T08:49:19.728Z,21.54
2023-04-22T08:51:52.880Z,21.60
2023-04-22T08:54:19.997Z,21.67
2023-04-22T08:56:47.282Z,21.72
2023-04-22T08:59:14.881Z,21.79
2023-04-22T09:01:42.529Z,21.85
2023-04-22T09:04:11.888Z,21.93
2023-04-22T09:06:39.445Z,22.01
2023-04-22T09:09:06.703Z,22.05
2023-04-22T09:11:34.206Z,22.13
2023-04-22T09:14:01.424Z,22.17
2023-04-22T09:16:30.571Z,22.25
2023-04-22T09:18:57.659Z,22.31
2023-04-22T09:21:26.865Z,22.37
2023-04-22T09:23:54.711Z,22.41
2023-04-22T09:26:22.826Z,22.48
2023-04-22T09:28:51.116Z,22.54
2023-04-22T09:31:21.661Z,22.58
2023-04-22T09:33:50.412Z,22.63
2023-04-22T09:36:17.422Z,22.70
2023-04-22T09:38:54.500Z,22.73
2023-04-22T09:41:31.107Z,22.77
2023-04-22T09:43:59.057Z,22.80
2023-04-22T09:46:26.985Z,22.83
2023-04-22T09:48:55.935Z,22.86
2023-04-22T09:51:23.443Z,22.89
2023-04-22T09:54:00.222Z,22.90
2023-04-22T09:56:36.846Z,22.92
2023-04-22T09:59:04.636Z,22.94
2023-04-22T10:01:42.441Z,22.96
2023-04-22T10:04:12.066Z,22.97
2023-04-22T10:06:39.071Z,22.97
2023-04-22T10:09:08.274Z,22.99
2023-04-22T10:11:36.660Z,23.00
2023-04-22T10:14:07.083Z,23.01
2023-04-22T10:16:36.072Z,23.01
2023-04-22T10:19:05.211Z,23.03
2023-04-22T10:21:32.939Z,23.05
2023-04-22T10:24:00.959Z,23.09
2023-04-22T10:26:37.971Z,23.08
2023-04-22T10:29:08.022Z,23.11
2023-04-22T10:31:35.418Z,23.11
2023-04-22T10:34:10.024Z,23.13
2023-04-22T10:36:52.619Z,23.11
2023-04-22T10:39:22.438Z,23.13
2023-04-22T10:42:02.741Z,23.12
2023-04-22T10:44:31.258Z,23.14
2023-04-22T10:46:59.317Z,23.13
2023-04-22T10:49:27.414Z,23.13
2023-04-22T10:51:56.415Z,23.14
2023-04-22T10:54:30.566Z,23.15
2023-04-22T10:57:05.918Z,23.18
2023-04-22T10:59:33.686Z,23.22
2023-04-22T11:02:02.799Z,23.25
2023-04-22T11:04:30.292Z,23.31
2023-04-22T11:07:06.626Z,23.35
2023-04-22T11:09:34.225Z,23.39
2023-04-22T11:12:10.750Z,23.43
2023-04-22T11:14:37.749Z,23.45
2023-04-22T11:17:04.792Z,23.47
2023-04-22T11:19:32.013Z,23.52
2023-04-22T11:21:59.107Z,23.53
2023-04-22T11:24:26.061Z,23.55
2023-04-22T11:26:57.330Z,23.61
2023-04-22T11:29:24.535Z,23.58
2023-04-22T11:31:51.626Z,23.60
2023-04-22T11:34:19.029Z,23.32
2023-04-22T11:36:46.431Z,22.86
2023-04-22T11:39:15.725Z,22.52
2023-04-22T11:41:43.185Z,22.29
2023-04-22T11:44:10.394Z,22.12
2023-04-22T11:46:40.585Z,21.96
2023-04-22T11:49:15.219Z,21.79
2023-04-22T11:51:51.495Z,21.59
2023-04-22T11:54:18.649Z,21.47
2023-04-22T11:56:48.924Z,21.55
2023-04-22T11:59:18.354Z,21.20
2023-04-22T12:01:47.420Z,21.06
2023-04-22T12:04:15.263Z,21.23
2023-04-22T12:06:43.003Z,20.96
2023-04-22T12:09:12.056Z,20.74
2023-04-22T12:11:40.886Z,20.54
2023-04-22T12:14:08.655Z,20.60
2023-04-22T12:16:43.559Z,20.87
2023-04-22T12:19:11.567Z,21.04
2023-04-22T12:21:38.673Z,21.24
2023-04-22T12:24:12.188Z,21.34
2023-04-22T12:26:39.435Z,21.48
2023-04-22T12:29:06.557Z,21.59
2023-04-22T12:31:33.720Z,21.68
2023-04-22T12:34:01.019Z,21.73
2023-04-22T12:36:28.093Z,21.82
2023-04-22T12:38:55.254Z,21.88
2023-04-22T12:41:24.047Z,21.93
2023-04-22T12:43:51.176Z,22.06
2023-04-22T12:46:18.325Z,22.25
2023-04-22T12:48:45.476Z,22.39
2023-04-22T12:51:12.761Z,22.46
2023-04-22T12:53:42.912Z,22.57
2023-04-22T12:56:10.305Z,22.58
2023-04-22T12:58:37.285Z,22.60
2023-04-22T13:01:06.984Z,22.69
2023-04-22T13:03:34.153Z,22.69
2023-04-22T13:06:02.698Z,22.78
2023-04-22T13:08:30.469Z,22.82
2023-04-22T13:10:57.452Z,22.79
2023-04-22T13:13:24.581Z,22.76
2023-04-22T13:15:54.075Z,22.76
2023-04-22T13:18:22.363Z,22.76
2023-04-22T13:20:49.354Z,22.77
2023-04-22T13:23:17.547Z,22.80
2023-04-22T13:25:44.917Z,22.83
2023-04-22T13:28:12.096Z,22.85
2023-04-22T13:30:39.974Z,22.90
2023-04-22T13:33:07.394Z,22.89
2023-04-22T13:35:34.582Z,22.93
2023-04-22T13:38:01.996Z,22.96
2023-04-22T13:40:29.319Z,22.95
2023-04-22T13:42:56.492Z,22.92
2023-04-22T13:45:23.490Z,22.92
2023-04-22T13:47:50.588Z,22.94
2023-04-22T13:50:17.639Z,22.95
2023-04-22T13:52:45.316Z,22.95
2023-04-22T13:55:12.501Z,22.96
2023-04-22T13:57:39.504Z,22.91
2023-04-22T14:00:06.914Z,22.92
2023-04-22T14:02:34.185Z,22.95
2023-04-22T14:05:01.742Z,22.93
2023-04-22T14:07:28.856Z,22.91
2023-04-22T14:09:55.982Z,22.90
2023-04-22T14:12:22.939Z,22.88
2023-04-22T14:14:49.958Z,22.85
2023-04-22T14:17:18.614Z,22.83
2023-04-22T14:19:45.623Z,22.81
2023-04-22T14:22:12.657Z,22.77
2023-04-22T14:24:39.753Z,22.74
2023-04-22T14:27:06.737Z,22.72
2023-04-22T14:29:33.863Z,22.73
2023-04-22T14:32:01.590Z,22.66
2023-04-22T14:34:28.620Z,22.60
2023-04-22T14:36:55.683Z,22.57
2023-04-22T14:39:22.712Z,22.52
2023-04-22T14:41:49.741Z,22.47
2023-04-22T14:44:16.747Z,22.45
2023-04-22T14:46:43.682Z,22.44
2023-04-22T14:49:10.696Z,22.43
2023-04-22T14:51:37.620Z,22.41
2023-04-22T14:54:04.760Z,22.41
2023-04-22T14:56:31.941Z,22.36
2023-04-22T14:58:58.936Z,22.36
2023-04-22T15:01:26.252Z,22.35
2023-04-22T15:03:53.498Z,22.33
2023-04-22T15:06:21.156Z,22.36
2023-04-22T15:08:48.643Z,22.33
2023-04-22T15:11:15.806Z,22.33
2023-04-22T15:13:42.747Z,22.33
2023-04-22T15:16:10.103Z,22.33
2023-04-22T15:18:39.334Z,22.32
2023-04-22T15:21:10.566Z,22.31
2023-04-22T15:23:37.513Z,22.29
2023-04-22T15:26:04.455Z,22.29
2023-04-22T15:28:31.436Z,22.24
2023-04-22T15:30:58.357Z,22.29
2023-04-22T15:33:25.348Z,22.27
2023-04-22T15:35:52.292Z,22.27
2023-04-22T15:38:19.672Z,22.29
2023-04-22T15:40:47.594Z,22.31
2023-04-22T15:43:14.521Z,22.25
2023-04-22T15:45:42.105Z,22.24
2023-04-22T15:48:09.168Z,22.22
2023-04-22T15:50:38.272Z,22.19
2023-04-22T15:53:08.956Z,22.16
2023-04-22T15:55:36.092Z,22.10
2023-04-22T15:58:03.200Z,22.07
2023-04-22T16:00:30.188Z,22.07
2023-04-22T16:02:57.298Z,22.03
2023-04-22T16:05:25.438Z,22.02
2023-04-22T16:07:53.544Z,22.04
2023-04-22T16:10:21.121Z,22.00
2023-04-22T16:12:48.362Z,22.00
2023-04-22T16:15:15.501Z,21.97
2023-04-22T16:17:43.903Z,22.01
2023-04-22T16:20:11.282Z,22.01
2023-04-22T16:22:47.248Z,21.97
2023-04-22T16:25:16.564Z,21.98
2023-04-22T16:27:55.561Z,21.96
2023-04-22T16:30:22.638Z,21.97
2023-04-22T16:32:53.122Z,21.96
2023-04-22T16:35:20.726Z,21.94
2023-04-22T16:37:47.762Z,21.91
2023-04-22T16:40:14.874Z,21.91
2023-04-22T16:42:41.934Z,21.90
2023-04-22T16:45:09.233Z,21.89
2023-04-22T16:47:36.610Z,21.86
2023-04-22T16:50:04.117Z,21.82
2023-04-22T16:52:34.818Z,21.80
2023-04-22T16:55:01.840Z,21.79
2023-04-22T16:57:28.938Z,21.78
2023-04-22T16:59:55.943Z,21.78
2023-04-22T17:02:23.055Z,21.76
2023-04-22T17:04:53.255Z,21.71
2023-04-22T17:07:20.344Z,21.69
2023-04-22T17:09:49.186Z,21.71
2023-04-22T17:12:16.417Z,21.69
2023-04-22T17:14:43.479Z,21.69
2023-04-22T17:17:10.538Z,21.68
2023-04-22T17:19:58.004Z,21.65
2023-04-22T17:22:25.267Z,21.64
2023-04-22T17:24:52.259Z,21.68
2023-04-22T17:27:23.940Z,21.73
2023-04-22T17:30:02.027Z,21.75
2023-04-22T17:32:29.086Z,21.81
2023-04-22T17:34:57.894Z,21.85
2023-04-22T17:37:25.485Z,21.90
2023-04-22T17:39:52.613Z,21.95
2023-04-22T17:42:19.660Z,22.00
2023-04-22T17:44:47.084Z,22.08
2023-04-22T17:47:17.416Z,22.14
2023-04-22T17:49:44.479Z,22.18
2023-04-22T17:52:11.621Z,22.21
2023-04-22T17:54:45.390Z,22.26
2023-04-22T17:57:12.652Z,22.30
2023-04-22T17:59:40.029Z,22.31
2023-04-22T18:02:07.397Z,22.34
2023-04-22T18:04:34.581Z,22.36
2023-04-22T18:07:01.449Z,22.38
2023-04-22T18:09:28.463Z,22.41
2023-04-22T18:11:58.728Z,22.43
2023-04-22T18:14:26.320Z,22.44
2023-04-22T18:16:53.375Z,22.43
2023-04-22T18:19:20.323Z,22.45
2023-04-22T18:21:59.082Z,22.45
2023-04-22T18:24:26.505Z,22.46
2023-04-22T18:26:53.837Z,22.46
2023-04-22T18:29:21.358Z,22.45
2023-04-22T18:31:48.481Z,22.43
2023-04-22T18:34:16.315Z,22.44
2023-04-22T18:36:43.279Z,22.44
2023-04-22T18:39:10.672Z,22.41
2023-04-22T18:41:38.996Z,22.41
2023-04-22T18:44:09.673Z,22.38
2023-04-22T18:46:37.067Z,22.37
2023-04-22T18:49:04.715Z,22.35
2023-04-22T18:51:31.868Z,22.32
2023-04-22T18:53:59.037Z,22.29
2023-04-22T18:56:26.074Z,22.25
2023-04-22T18:58:53.031Z,22.22
2023-04-22T19:01:22.355Z,22.22
2023-04-22T19:03:52.377Z,22.20
2023-04-22T19:06:19.383Z,22.17
2023-04-22T19:08:47.015Z,22.17
2023-04-22T19:11:13.935Z,22.15
2023-04-22T19:13:40.960Z,22.15
2023-04-22T19:16:08.112Z,22.13
2023-04-22T19:18:35.456Z,22.14
2023-04-22T19:21:03.290Z,22.18
2023-04-22T19:23:30.375Z,22.23
2023-04-22T19:25:57.279Z,22.28
2023-04-22T19:28:24.332Z,22.33
2023-04-22T19:30:51.573Z,22.38
2023-04-22T19:33:18.658Z,22.41
2023-04-22T19:35:46.279Z,22.43
2023-04-22T19:38:16.692Z,22.48
2023-04-22T19:40:43.643Z,22.50
2023-04-22T19:43:10.781Z,22.53
2023-04-22T19:45:37.841Z,22.60
2023-04-22T19:48:05.420Z,22.60
2023-04-22T19:50:34.798Z,22.60
2023-04-22T19:53:04.330Z,22.61
2023-04-22T19:55:32.529Z,22.63
2023-04-22T19:57:59.812Z,22.66
2023-04-22T20:00:26.904Z,22.66
2023-04-22T20:02:54.176Z,22.68
2023-04-22T20:05:22.664Z,22.69
2023-04-22T20:07:50.140Z,22.70
2023-04-22T20:10:17.419Z,22.71
2023-04-22T20:12:45.373Z,22.71
2023-04-22T20:15:12.795Z,22.70
2023-04-22T20:17:40.652Z,22.70
2023-04-22T20:20:13.261Z,22.70
2023-04-22T20:22:40.758Z,22.70
2023-04-22T20:25:08.588Z,22.68
2023-04-22T20:27:35.694Z,22.69
2023-04-22T20:30:02.743Z,22.64
2023-04-22T20:32:30.238Z,22.62
2023-04-22T20:34:57.672Z,22.61
2023-04-22T20:37:26.482Z,22.59
2023-04-22T20:39:53.685Z,22.55
2023-04-22T20:42:22.736Z,22.49
2023-04-22T20:44:49.764Z,22.48
2023-04-22T20:47:16.861Z,22.47
2023-04-22T20:49:44.424Z,22.43
2023-04-22T20:52:11.934Z,22.41
2023-04-22T20:54:39.632Z,22.38
2023-04-22T20:57:07.574Z,22.36
2023-04-22T20:59:35.199Z,22.34
2023-04-22T21:02:04.528Z,22.34
2023-04-22T21:04:32.303Z,22.32
2023-04-22T21:07:01.425Z,22.30
2023-04-22T21:09:28.456Z,22.31
2023-04-22T21:11:55.767Z,22.28
2023-04-22T21:14:26.546Z,22.26
2023-04-22T21:16:57.811Z,22.24
2023-04-22T21:19:25.148Z,22.19
2023-04-22T21:21:53.820Z,22.17
2023-04-22T21:24:21.657Z,22.16
2023-04-22T21:26:49.244Z,22.14
2023-04-22T21:29:16.911Z,22.11
2023-04-22T21:31:49.266Z,22.07
2023-04-22T21:34:24.910Z,22.02
2023-04-22T21:36:52.406Z,22.03
2023-04-22T21:39:19.482Z,22.01
2023-04-22T21:41:46.319Z,22.01
2023-04-22T21:44:13.293Z,21.98
2023-04-22T21:46:40.452Z,21.95
2023-04-22T21:49:07.457Z,21.95
2023-04-22T21:51:34.600Z,21.90
2023-04-22T21:54:01.521Z,21.89
2023-04-22T21:56:28.485Z,21.87
2023-04-22T21:58:56.064Z,21.85
2023-04-22T22:01:23.035Z,21.84
2023-04-22T22:03:50.151Z,21.81
2023-04-22T22:06:17.262Z,21.77
2023-04-22T22:08:46.321Z,21.77
2023-04-22T22:11:27.540Z,21.75
2023-04-22T22:13:57.677Z,21.71
2023-04-22T22:16:24.984Z,21.70
2023-04-22T22:18:52.261Z,21.73
2023-04-22T22:21:19.229Z,21.70
2023-04-22T22:23:46.221Z,21.67
2023-04-22T22:26:13.473Z,21.66
2023-04-22T22:28:40.541Z,21.64
2023-04-22T22:31:08.568Z,21.63
2023-04-22T22:33:35.845Z,21.64
2023-04-22T22:36:02.841Z,21.65
2023-04-22T22:38:30.011Z,21.72
2023-04-22T22:40:57.124Z,21.79
2023-04-22T22:43:24.060Z,21.87
2023-04-22T22:45:51.265Z,21.92
2023-04-22T22:48:18.543Z,21.99
2023-04-22T22:50:46.947Z,22.06
2023-04-22T22:53:13.916Z,22.11
2023-04-22T22:55:40.921Z,22.14
2023-04-22T22:58:07.798Z,22.18
2023-04-22T23:00:34.918Z,22.21
2023-04-22T23:03:02.161Z,22.23
2023-04-22T23:05:29.461Z,22.26
2023-04-22T23:07:56.433Z,22.29
2023-04-22T23:10:23.357Z,22.29
2023-04-22T23:12:50.358Z,22.31
2023-04-22T23:15:17.319Z,22.32
2023-04-22T23:17:44.543Z,22.30
2023-04-22T23:20:12.389Z,22.32
2023-04-22T23:22:41.032Z,22.37
2023-04-22T23:25:08.891Z,22.38
2023-04-22T23:27:36.180Z,22.37
2023-04-22T23:30:04.226Z,22.38
2023-04-22T23:32:35.408Z,22.38
2023-04-22T23:35:03.003Z,22.38
2023-04-22T23:37:30.045Z,22.38
2023-04-22T23:39:56.939Z,22.39
2023-04-22T23:42:23.889Z,22.40
2023-04-22T23:44:50.935Z,22.40
2023-04-22T23:47:18.126Z,22.39
2023-04-22T23:49:45.024Z,22.40
2023-04-22T23:52:13.247Z,22.42
2023-04-22T23:54:41.066Z,22.42
2023-04-22T23:57:08.720Z,22.43
2023-04-22T23:59:36.040Z,22.42
